Time;durP1;ratioP1;P1;durP2;ratioP2;P2;SDS_P1;SDS_P2;PMS_P1;PMS_P2;Temp;Humidity;BMP_temperature;BMP_pressure;BME280_temperature;BME280_humidity;BME280_pressure;Samples;Min_cycle;Max_cycle;Signal;HPM_P1;HPM_P2
2021/09/09 00:01:26;;;;;;;10.73;6.40;;;16.60;99.90;;;;;;4186567;28;20210;-80
2021/09/09 00:03:28;;;;;;;8.80;6.30;;;16.60;99.90;;;;;;4197313;28;20216;-82
2021/09/09 00:05:30;;;;;;;11.27;6.80;;;16.60;99.90;;;;;;4175578;28;20223;-82
2021/09/09 00:07:32;;;;;;;10.67;6.73;;;16.60;99.90;;;;;;4176886;28;20234;-82
2021/09/09 00:09:34;;;;;;;10.83;6.77;;;16.50;99.90;;;;;;4177044;28;20277;-82
2021/09/09 00:11:36;;;;;;;12.93;6.63;;;16.50;99.90;;;;;;4171892;28;20210;-83
2021/09/09 00:13:38;;;;;;;11.07;7.37;;;16.50;99.90;;;;;;4176725;28;20206;-81
2021/09/09 00:15:41;;;;;;;10.97;6.73;;;16.40;99.90;;;;;;4183130;28;20213;-81
2021/09/09 00:17:43;;;;;;;10.40;6.93;;;16.50;99.90;;;;;;4184426;28;20242;-81
2021/09/09 00:19:45;;;;;;;12.63;7.40;;;16.40;99.90;;;;;;4179411;28;20714;-83
2021/09/09 00:21:47;;;;;;;9.63;6.50;;;16.40;99.90;;;;;;4182787;28;20217;-82
2021/09/09 00:23:49;;;;;;;11.77;6.97;;;16.30;99.90;;;;;;4168833;28;20366;-81
2021/09/09 00:25:51;;;;;;;9.60;6.30;;;16.30;99.90;;;;;;4187824;28;20264;-82
2021/09/09 00:27:52;;;;;;;10.73;6.90;;;16.30;99.90;;;;;;4179149;28;20233;-82
2021/09/09 00:29:54;;;;;;;10.37;6.90;;;16.20;99.90;;;;;;4167354;28;20191;-80
2021/09/09 00:31:57;;;;;;;9.23;6.67;;;16.20;99.90;;;;;;4167278;28;20245;-81
2021/09/09 00:33:59;;;;;;;12.03;7.33;;;16.30;99.90;;;;;;4167775;28;20669;-81
2021/09/09 00:36:02;;;;;;;11.37;7.53;;;16.20;99.90;;;;;;4183006;28;20209;-81
2021/09/09 00:38:05;;;;;;;10.50;7.03;;;16.10;99.90;;;;;;4175981;28;20329;-81
2021/09/09 00:40:08;;;;;;;10.20;6.80;;;16.10;99.90;;;;;;4182848;28;20218;-82
2021/09/09 00:42:10;;;;;;;11.23;6.93;;;16.10;99.90;;;;;;4169859;28;20211;-81
2021/09/09 00:44:21;;;;;;;10.07;6.73;;;16.10;99.90;;;;;;4167994;28;20207;-81
2021/09/09 00:46:24;;;;;;;10.70;7.27;;;16.00;99.90;;;;;;4166576;28;20268;-82
2021/09/09 00:48:27;;;;;;;10.03;6.60;;;16.00;99.90;;;;;;4168071;28;20231;-82
2021/09/09 00:50:29;;;;;;;9.73;6.40;;;16.00;99.90;;;;;;4183169;28;20215;-82
2021/09/09 00:52:31;;;;;;;10.77;7.30;;;16.00;99.90;;;;;;4196993;28;20214;-82
2021/09/09 00:54:33;;;;;;;10.90;7.03;;;15.90;99.90;;;;;;4174182;28;20211;-81
2021/09/09 00:56:35;;;;;;;11.33;7.00;;;16.00;99.90;;;;;;4167478;28;20586;-81
2021/09/09 00:58:39;;;;;;;10.27;6.67;;;15.90;99.90;;;;;;4171481;28;20251;-81
2021/09/09 01:00:41;;;;;;;11.97;6.63;;;15.90;99.90;;;;;;4192698;28;20278;-81
2021/09/09 01:02:43;;;;;;;10.47;6.70;;;15.90;99.90;;;;;;4178887;28;20222;-81
2021/09/09 01:04:49;;;;;;;9.83;6.00;;;15.90;99.90;;;;;;4177639;28;20205;-81
2021/09/09 01:06:51;;;;;;;11.33;6.83;;;15.80;99.90;;;;;;4173976;28;20235;-81
2021/09/09 01:08:53;;;;;;;10.40;6.83;;;15.80;99.90;;;;;;4167815;28;20288;-81
2021/09/09 01:10:54;;;;;;;11.03;6.93;;;15.80;99.90;;;;;;4166562;28;20760;-81
2021/09/09 01:12:56;;;;;;;9.13;6.30;;;15.80;99.90;;;;;;4170741;28;20215;-81
2021/09/09 01:15:00;;;;;;;12.23;6.97;;;15.80;99.90;;;;;;4187074;28;20254;-81
2021/09/09 01:17:03;;;;;;;12.80;7.00;;;15.70;99.90;;;;;;4168239;28;20582;-82
2021/09/09 01:19:06;;;;;;;13.17;7.07;;;15.70;99.90;;;;;;4217478;22;20651;-76
2021/09/09 01:21:10;;;;;;;12.20;6.87;;;15.60;99.90;;;;;;4210010;28;20213;-76
2021/09/09 01:23:12;;;;;;;10.47;6.47;;;15.70;99.90;;;;;;4205795;28;20206;-76
2021/09/09 01:25:15;;;;;;;10.73;6.90;;;15.60;99.90;;;;;;4213427;28;20228;-76
2021/09/09 01:27:17;;;;;;;10.50;6.87;;;15.60;99.90;;;;;;4213547;28;20213;-76
2021/09/09 01:29:21;;;;;;;12.10;7.37;;;15.50;99.90;;;;;;4203304;28;20223;-76
2021/09/09 01:31:23;;;;;;;10.77;6.80;;;15.50;99.90;;;;;;4205211;28;20232;-76
2021/09/09 01:33:24;;;;;;;11.00;7.23;;;15.50;99.90;;;;;;4204770;28;20212;-76
2021/09/09 01:35:26;;;;;;;12.77;7.40;;;15.50;99.90;;;;;;4212447;28;20211;-76
2021/09/09 01:37:28;;;;;;;12.67;7.33;;;15.40;99.90;;;;;;4212531;28;20208;-76
2021/09/09 01:39:30;;;;;;;10.07;6.83;;;15.40;99.90;;;;;;4213094;28;20756;-77
2021/09/09 01:41:34;;;;;;;11.33;7.23;;;15.30;99.90;;;;;;4212579;28;20657;-76
2021/09/09 01:43:35;;;;;;;10.60;7.37;;;15.40;99.90;;;;;;4213346;28;20211;-76
2021/09/09 01:45:37;;;;;;;10.30;7.20;;;15.20;99.90;;;;;;4205984;28;20676;-76
2021/09/09 01:47:39;;;;;;;12.07;7.30;;;15.20;99.90;;;;;;4196419;28;20209;-76
2021/09/09 01:49:41;;;;;;;14.20;8.00;;;15.20;99.90;;;;;;4196770;28;20207;-76
2021/09/09 01:51:43;;;;;;;11.50;7.10;;;15.10;99.90;;;;;;4214313;28;20257;-76
2021/09/09 01:53:45;;;;;;;10.90;7.30;;;15.10;99.90;;;;;;4210557;28;20215;-76
2021/09/09 01:55:46;;;;;;;13.43;7.97;;;15.10;99.90;;;;;;4209290;28;20265;-76
2021/09/09 01:57:49;;;;;;;11.43;7.00;;;15.00;99.90;;;;;;4213029;28;20235;-76
2021/09/09 01:59:51;;;;;;;10.67;6.93;;;15.00;99.90;;;;;;4211932;28;20225;-76
2021/09/09 02:01:53;;;;;;;12.83;7.17;;;15.00;99.90;;;;;;4211987;28;20675;-77
2021/09/09 02:03:54;;;;;;;10.77;6.90;;;14.90;99.90;;;;;;4207388;28;20691;-76
2021/09/09 02:05:56;;;;;;;11.93;7.33;;;14.90;99.90;;;;;;4205560;28;20282;-76
2021/09/09 02:07:58;;;;;;;10.33;6.90;;;15.00;99.90;;;;;;4203814;28;20233;-76
2021/09/09 02:09:59;;;;;;;11.63;7.23;;;14.90;99.90;;;;;;4204191;28;20724;-77
2021/09/09 02:12:01;;;;;;;10.80;7.67;;;14.80;99.90;;;;;;4211873;28;20210;-77
2021/09/09 02:14:04;;;;;;;12.90;7.47;;;14.80;99.90;;;;;;4202605;28;20210;-76
2021/09/09 02:16:07;;;;;;;13.00;7.70;;;14.80;99.90;;;;;;4212400;28;20204;-77
2021/09/09 02:18:08;;;;;;;16.20;7.90;;;14.70;99.90;;;;;;4211526;28;20246;-76
2021/09/09 02:20:11;;;;;;;13.47;8.07;;;14.70;99.90;;;;;;4212496;28;20226;-76
2021/09/09 02:22:13;;;;;;;15.23;8.30;;;14.70;99.90;;;;;;4210902;28;20217;-76
2021/09/09 02:24:15;;;;;;;13.37;8.07;;;14.60;99.90;;;;;;4210559;28;20210;-76
2021/09/09 02:26:16;;;;;;;15.60;7.80;;;14.60;99.90;;;;;;4211623;28;20219;-77
2021/09/09 02:28:18;;;;;;;10.90;7.30;;;14.60;99.90;;;;;;4204587;28;20239;-76
2021/09/09 02:30:22;;;;;;;11.97;7.90;;;14.50;99.90;;;;;;4205716;28;20199;-76
2021/09/09 02:32:23;;;;;;;12.23;8.03;;;14.50;99.90;;;;;;4213118;28;20358;-76
2021/09/09 02:34:25;;;;;;;12.33;7.73;;;14.50;99.90;;;;;;4215642;28;20262;-76
2021/09/09 02:36:27;;;;;;;11.97;7.10;;;14.50;99.90;;;;;;4215986;28;20209;-76
2021/09/09 02:38:28;;;;;;;14.83;8.00;;;14.50;99.90;;;;;;4220779;28;20240;-76
2021/09/09 02:40:30;;;;;;;15.13;8.37;;;14.50;99.90;;;;;;4213604;28;20209;-76
2021/09/09 02:42:32;;;;;;;11.60;7.73;;;14.40;99.90;;;;;;4215654;28;20270;-76
2021/09/09 02:44:34;;;;;;;13.17;8.10;;;14.50;99.90;;;;;;4210254;28;20213;-76
2021/09/09 02:46:37;;;;;;;12.77;7.70;;;14.50;99.90;;;;;;4216370;28;20213;-76
2021/09/09 02:48:38;;;;;;;12.10;8.30;;;14.40;99.90;;;;;;4206809;28;20233;-76
2021/09/09 02:50:40;;;;;;;12.10;7.90;;;14.40;99.90;;;;;;4215653;28;20209;-76
2021/09/09 02:52:43;;;;;;;13.37;8.40;;;14.40;99.90;;;;;;4214184;28;20213;-76
2021/09/09 02:54:44;;;;;;;13.93;7.63;;;14.40;99.90;;;;;;4210852;28;20266;-77
2021/09/09 02:56:46;;;;;;;12.90;7.50;;;14.30;99.90;;;;;;4215573;28;20662;-76
2021/09/09 02:58:48;;;;;;;14.67;8.53;;;14.40;99.90;;;;;;4209473;28;20255;-76
2021/09/09 03:00:49;;;;;;;14.10;8.33;;;14.30;99.90;;;;;;4215898;28;20618;-76
2021/09/09 03:02:52;;;;;;;12.47;8.33;;;14.30;99.90;;;;;;4216294;28;20655;-76
2021/09/09 03:04:54;;;;;;;11.43;7.70;;;14.30;99.90;;;;;;4212667;28;20624;-76
2021/09/09 03:06:56;;;;;;;10.87;7.50;;;14.30;99.90;;;;;;4205163;28;20221;-76
2021/09/09 03:08:58;;;;;;;13.60;8.20;;;14.30;99.90;;;;;;4207444;28;20301;-76
2021/09/09 03:11:01;;;;;;;13.77;8.10;;;14.30;99.90;;;;;;4198849;28;20220;-76
2021/09/09 03:13:02;;;;;;;14.67;8.20;;;14.20;99.90;;;;;;4202520;28;20605;-76
2021/09/09 03:15:05;;;;;;;14.83;8.47;;;14.20;99.90;;;;;;4202689;28;20267;-76
2021/09/09 03:17:07;;;;;;;12.17;7.77;;;14.20;99.90;;;;;;4198846;28;20210;-76
2021/09/09 03:19:10;;;;;;;14.33;8.97;;;14.20;99.90;;;;;;4203727;28;20237;-76
2021/09/09 03:21:12;;;;;;;14.20;8.63;;;14.20;99.90;;;;;;4208092;28;20279;-76
2021/09/09 03:23:14;;;;;;;15.27;7.77;;;14.20;99.90;;;;;;4207392;28;20251;-77
2021/09/09 03:25:16;;;;;;;13.00;8.97;;;14.20;99.90;;;;;;4214427;28;20209;-76
2021/09/09 03:27:18;;;;;;;13.77;8.10;;;14.20;99.90;;;;;;4213525;28;20212;-76
2021/09/09 03:29:20;;;;;;;13.73;8.43;;;14.20;99.90;;;;;;4210971;28;20276;-76
2021/09/09 03:31:22;;;;;;;14.97;8.43;;;14.20;99.90;;;;;;4214493;28;20612;-76
2021/09/09 03:33:23;;;;;;;14.30;8.50;;;14.10;99.90;;;;;;4213519;28;20213;-76
2021/09/09 03:35:26;;;;;;;12.83;8.87;;;14.20;99.90;;;;;;4210326;28;20677;-76
2021/09/09 03:37:28;;;;;;;14.07;9.30;;;14.00;99.90;;;;;;4214857;28;20624;-76
2021/09/09 03:39:30;;;;;;;13.23;8.03;;;14.10;99.90;;;;;;4213717;28;20246;-76
2021/09/09 03:41:32;;;;;;;12.13;7.83;;;14.00;99.90;;;;;;4208027;28;20202;-76
2021/09/09 03:43:34;;;;;;;16.60;8.60;;;14.00;99.90;;;;;;4211183;28;20643;-76
2021/09/09 03:45:35;;;;;;;15.93;7.87;;;14.00;99.90;;;;;;4214947;28;20698;-76
2021/09/09 03:47:37;;;;;;;11.07;7.87;;;14.00;99.90;;;;;;4213910;28;20213;-76
2021/09/09 03:49:39;;;;;;;12.43;8.10;;;14.00;99.90;;;;;;4199801;28;20255;-76
2021/09/09 03:51:42;;;;;;;11.57;7.73;;;13.90;99.90;;;;;;4200994;28;20209;-77
2021/09/09 03:53:43;;;;;;;13.70;8.50;;;14.00;99.90;;;;;;4201435;28;20266;-76
2021/09/09 03:55:45;;;;;;;11.23;8.07;;;13.90;99.90;;;;;;4214644;28;20305;-76
2021/09/09 03:57:48;;;;;;;12.13;8.40;;;13.90;99.90;;;;;;4213913;28;20281;-76
2021/09/09 03:59:50;;;;;;;12.47;8.67;;;13.90;99.90;;;;;;4204083;28;20234;-76
2021/09/09 04:01:51;;;;;;;15.53;8.77;;;13.90;99.90;;;;;;4197744;28;20305;-77
2021/09/09 04:03:53;;;;;;;13.00;8.57;;;13.90;99.90;;;;;;4203821;28;20658;-76
2021/09/09 04:05:55;;;;;;;12.13;8.27;;;13.80;99.90;;;;;;4215188;28;20220;-76
2021/09/09 04:07:58;;;;;;;13.23;8.23;;;13.80;99.90;;;;;;4204500;28;20259;-77
2021/09/09 04:10:00;;;;;;;13.57;8.13;;;13.80;99.90;;;;;;4210295;28;20239;-76
2021/09/09 04:12:02;;;;;;;14.50;9.20;;;13.80;99.90;;;;;;4212655;28;20251;-76
2021/09/09 04:14:04;;;;;;;13.10;8.17;;;13.80;99.90;;;;;;4212104;28;20212;-76
2021/09/09 04:16:06;;;;;;;11.73;8.63;;;13.70;99.90;;;;;;4211764;28;20254;-77
2021/09/09 04:18:07;;;;;;;14.17;8.43;;;13.60;99.90;;;;;;4213548;28;20270;-77
2021/09/09 04:20:10;;;;;;;12.80;8.30;;;13.70;99.90;;;;;;4210024;28;20697;-77
2021/09/09 04:22:12;;;;;;;12.30;8.40;;;13.70;99.90;;;;;;4213127;28;20270;-77
2021/09/09 04:24:15;;;;;;;14.13;9.17;;;13.70;99.90;;;;;;4214700;28;20345;-77
2021/09/09 04:26:17;;;;;;;13.77;8.27;;;13.70;99.90;;;;;;4206332;28;20222;-77
2021/09/09 04:28:19;;;;;;;12.93;8.60;;;13.70;99.90;;;;;;4213506;28;20274;-77
2021/09/09 04:30:20;;;;;;;13.00;8.50;;;13.70;99.90;;;;;;4214217;28;20635;-77
2021/09/09 04:32:22;;;;;;;13.47;8.60;;;13.60;99.90;;;;;;4212442;28;20209;-77
2021/09/09 04:34:24;;;;;;;13.43;8.87;;;13.60;99.90;;;;;;4205947;28;20259;-77
2021/09/09 04:36:26;;;;;;;14.73;8.83;;;13.60;99.90;;;;;;4210468;28;20609;-77
2021/09/09 04:38:27;;;;;;;14.43;9.00;;;13.60;99.90;;;;;;4208847;28;20490;-77
2021/09/09 04:40:30;;;;;;;14.73;8.90;;;13.50;99.90;;;;;;4197200;28;20274;-77
2021/09/09 04:42:32;;;;;;;13.87;8.63;;;13.50;99.90;;;;;;4199728;28;20765;-77
2021/09/09 04:44:34;;;;;;;12.83;8.60;;;13.50;99.90;;;;;;4205154;28;20262;-77
2021/09/09 04:46:36;;;;;;;14.83;8.80;;;13.50;99.90;;;;;;4199485;28;20205;-77
2021/09/09 04:48:38;;;;;;;14.73;8.90;;;13.50;99.90;;;;;;4200868;28;20237;-77
2021/09/09 04:50:39;;;;;;;14.80;9.37;;;13.50;99.90;;;;;;4212824;28;20205;-78
2021/09/09 04:52:41;;;;;;;15.07;9.90;;;13.50;99.90;;;;;;4202749;28;22808;-78
2021/09/09 04:54:43;;;;;;;16.30;9.37;;;13.50;99.90;;;;;;4210405;28;20213;-78
2021/09/09 04:56:46;;;;;;;15.53;9.60;;;13.50;99.90;;;;;;4207741;28;20205;-76
2021/09/09 04:58:48;;;;;;;15.37;10.07;;;13.50;99.90;;;;;;4204956;28;20228;-78
2021/09/09 05:00:49;;;;;;;14.27;9.33;;;13.50;99.90;;;;;;4209165;28;20228;-77
2021/09/09 05:02:51;;;;;;;14.70;9.57;;;13.50;99.90;;;;;;4207450;28;20654;-76
2021/09/09 05:04:53;;;;;;;14.90;8.90;;;13.50;99.90;;;;;;4204441;28;20205;-77
2021/09/09 05:06:54;;;;;;;14.23;8.97;;;13.50;99.90;;;;;;4210222;28;20205;-77
2021/09/09 05:08:56;;;;;;;13.07;9.17;;;13.50;99.90;;;;;;4211543;28;20254;-76
2021/09/09 05:10:58;;;;;;;13.20;8.23;;;13.50;99.90;;;;;;4212499;28;20205;-76
2021/09/09 05:13:01;;;;;;;14.33;9.13;;;13.50;99.90;;;;;;4208581;28;20357;-76
2021/09/09 05:15:04;;;;;;;19.00;10.27;;;13.50;99.90;;;;;;4209915;28;20274;-76
2021/09/09 05:17:05;;;;;;;17.40;10.37;;;13.50;99.90;;;;;;4209404;28;20760;-76
2021/09/09 05:19:08;;;;;;;22.27;10.77;;;13.50;99.90;;;;;;4207948;28;20512;-77
2021/09/09 05:21:09;;;;;;;15.80;9.93;;;13.50;99.90;;;;;;4205698;28;20814;-78
2021/09/09 05:23:13;;;;;;;16.40;9.77;;;13.50;99.90;;;;;;4207249;28;20270;-77
2021/09/09 05:25:15;;;;;;;14.03;9.23;;;13.50;99.90;;;;;;4198839;28;20464;-78
2021/09/09 05:27:16;;;;;;;17.53;9.97;;;13.50;99.90;;;;;;4200710;28;20216;-77
2021/09/09 05:29:22;;;;;;;15.33;10.00;;;13.50;99.90;;;;;;4201142;28;20290;-77
2021/09/09 05:31:24;;;;;;;16.17;9.13;;;13.50;99.90;;;;;;4201202;28;20205;-77
2021/09/09 05:33:25;;;;;;;15.97;10.07;;;13.50;99.90;;;;;;4199985;28;20231;-78
2021/09/09 05:35:27;;;;;;;16.87;10.10;;;13.50;99.90;;;;;;4199119;28;20266;-78
2021/09/09 05:37:29;;;;;;;15.50;9.87;;;13.60;99.90;;;;;;4199797;28;20289;-78
2021/09/09 05:39:31;;;;;;;15.13;9.93;;;13.60;99.90;;;;;;4202512;28;20209;-77
2021/09/09 05:41:32;;;;;;;16.17;9.40;;;13.60;99.90;;;;;;4200616;28;20271;-78
2021/09/09 05:43:34;;;;;;;16.80;9.53;;;13.60;99.90;;;;;;4204977;28;20213;-78
2021/09/09 05:45:37;;;;;;;15.97;9.50;;;13.60;99.90;;;;;;4203162;28;20278;-78
2021/09/09 05:47:39;;;;;;;15.93;9.70;;;13.60;99.90;;;;;;4195153;28;20578;-78
2021/09/09 05:49:41;;;;;;;15.87;9.73;;;13.60;99.90;;;;;;4208778;28;20266;-78
2021/09/09 05:51:42;;;;;;;13.20;9.10;;;13.60;99.90;;;;;;4205580;28;20242;-78
2021/09/09 05:53:44;;;;;;;16.27;9.90;;;13.70;99.90;;;;;;4206149;28;20213;-78
2021/09/09 05:55:46;;;;;;;15.60;10.23;;;13.70;99.90;;;;;;4200362;28;20574;-80
2021/09/09 05:57:48;;;;;;;15.90;9.77;;;13.80;99.90;;;;;;4208844;28;20237;-77
2021/09/09 05:59:50;;;;;;;14.40;9.20;;;13.70;99.90;;;;;;4190423;28;20773;-77
2021/09/09 06:01:54;;;;;;;15.33;9.63;;;13.70;99.90;;;;;;4207839;28;20216;-77
2021/09/09 06:03:56;;;;;;;14.73;9.50;;;13.70;99.90;;;;;;4208818;28;20209;-77
2021/09/09 06:06:02;;;;;;;17.50;10.30;;;13.80;99.90;;;;;;4202915;28;20216;-77
2021/09/09 06:08:04;;;;;;;19.67;9.93;;;13.80;99.90;;;;;;4205134;28;20315;-77
2021/09/09 06:10:08;;;;;;;15.60;9.70;;;13.80;99.90;;;;;;4205983;28;20657;-77
2021/09/09 06:12:10;;;;;;;14.23;9.33;;;13.80;99.90;;;;;;4205971;28;20270;-77
2021/09/09 06:14:13;;;;;;;13.93;8.93;;;13.90;99.90;;;;;;4209016;28;20672;-77
2021/09/09 06:16:15;;;;;;;15.27;9.93;;;13.90;99.90;;;;;;4204291;28;20838;-77
2021/09/09 06:18:18;;;;;;;14.10;9.60;;;13.90;99.90;;;;;;4206185;28;20232;-77
2021/09/09 06:20:20;;;;;;;13.97;9.63;;;13.90;99.90;;;;;;4206690;28;20291;-77
2021/09/09 06:22:22;;;;;;;14.87;9.50;;;13.90;99.90;;;;;;4204249;28;20232;-78
2021/09/09 06:24:24;;;;;;;15.53;9.53;;;14.00;99.90;;;;;;4206407;28;20205;-77
2021/09/09 06:26:25;;;;;;;16.23;10.47;;;14.00;99.90;;;;;;4191588;28;20218;-78
2021/09/09 06:28:27;;;;;;;17.30;10.77;;;14.00;99.90;;;;;;4206101;28;20671;-79
2021/09/09 06:30:29;;;;;;;20.90;11.47;;;14.10;99.90;;;;;;4204920;28;20665;-78
2021/09/09 06:32:31;;;;;;;15.87;9.93;;;14.10;99.90;;;;;;4208098;28;20262;-84
2021/09/09 06:34:34;;;;;;;18.67;10.37;;;14.10;99.90;;;;;;4207210;28;20250;-77
2021/09/09 06:36:35;;;;;;;15.63;9.63;;;14.10;99.90;;;;;;4208547;28;20661;-78
2021/09/09 06:38:37;;;;;;;15.33;9.77;;;14.20;99.90;;;;;;4205744;28;20258;-79
2021/09/09 06:40:39;;;;;;;15.20;10.03;;;14.20;99.90;;;;;;4209229;28;20283;-79
2021/09/09 06:42:41;;;;;;;14.57;9.57;;;14.40;99.90;;;;;;4210202;28;20213;-79
2021/09/09 06:44:43;;;;;;;16.60;9.90;;;14.30;99.90;;;;;;4220227;28;20261;-79
2021/09/09 06:46:44;;;;;;;15.63;9.47;;;14.40;99.90;;;;;;4214278;28;20213;-79
2021/09/09 06:48:46;;;;;;;14.17;9.70;;;14.40;99.90;;;;;;4211168;28;20320;-78
2021/09/09 06:50:49;;;;;;;16.73;8.97;;;14.40;99.90;;;;;;4204337;28;20857;-79
2021/09/09 06:52:51;;;;;;;14.27;9.40;;;14.50;99.90;;;;;;4209606;28;20314;-79
2021/09/09 06:54:53;;;;;;;15.87;9.03;;;14.50;99.90;;;;;;4194284;28;20748;-79
2021/09/09 06:56:54;;;;;;;17.17;9.23;;;14.70;99.90;;;;;;4192244;28;20211;-79
2021/09/09 06:58:56;;;;;;;14.60;9.77;;;14.80;99.90;;;;;;4202149;28;20234;-79
2021/09/09 07:00:58;;;;;;;14.63;9.77;;;14.70;99.90;;;;;;4201453;28;20232;-78
2021/09/09 07:03:00;;;;;;;13.30;9.00;;;14.90;99.90;;;;;;4199104;28;20671;-78
2021/09/09 07:05:01;;;;;;;12.83;8.90;;;14.80;99.90;;;;;;4200706;28;20208;-79
2021/09/09 07:07:04;;;;;;;13.43;9.10;;;14.90;99.90;;;;;;4202019;28;20746;-79
2021/09/09 07:09:06;;;;;;;13.97;9.40;;;14.90;99.90;;;;;;4200633;28;20709;-78
2021/09/09 07:11:08;;;;;;;14.33;9.13;;;14.90;99.90;;;;;;4199803;28;20615;-78
2021/09/09 07:13:10;;;;;;;13.17;8.77;;;15.00;99.90;;;;;;4200962;28;20680;-78
2021/09/09 07:15:12;;;;;;;15.23;8.83;;;15.00;99.90;;;;;;4207464;28;20270;-78
2021/09/09 07:17:14;;;;;;;13.00;8.30;;;15.00;99.90;;;;;;4205419;28;20692;-78
2021/09/09 07:19:16;;;;;;;11.97;7.87;;;15.10;99.90;;;;;;4239192;22;20235;-76
2021/09/09 07:21:18;;;;;;;15.87;8.40;;;15.10;99.90;;;;;;4193528;28;20233;-79
2021/09/09 07:23:21;;;;;;;14.00;7.63;;;15.20;99.90;;;;;;4185538;28;20227;-77
2021/09/09 07:25:23;;;;;;;13.40;8.63;;;15.30;99.90;;;;;;4188388;28;20640;-76
2021/09/09 07:27:24;;;;;;;12.43;8.33;;;15.40;99.90;;;;;;4194942;28;20217;-76
2021/09/09 07:29:26;;;;;;;12.13;8.00;;;15.50;99.90;;;;;;4194434;28;20245;-75
2021/09/09 07:31:28;;;;;;;14.47;8.00;;;15.60;99.90;;;;;;4186838;28;20218;-77
2021/09/09 07:33:30;;;;;;;12.33;8.37;;;15.70;99.90;;;;;;4188024;28;20682;-76
2021/09/09 07:35:32;;;;;;;12.77;8.23;;;15.80;99.90;;;;;;4190938;28;20225;-76
2021/09/09 07:37:33;;;;;;;11.83;7.80;;;15.90;99.90;;;;;;4194827;28;20259;-77
2021/09/09 07:39:36;;;;;;;13.83;7.50;;;16.00;99.90;;;;;;4190662;28;20234;-75
2021/09/09 07:41:39;;;;;;;14.90;7.30;;;16.00;99.90;;;;;;4191492;28;20257;-75
2021/09/09 07:43:40;;;;;;;20.57;7.67;;;16.10;99.90;;;;;;4194490;28;20334;-76
2021/09/09 07:45:42;;;;;;;12.90;7.70;;;16.30;99.90;;;;;;4194151;28;20209;-77
2021/09/09 07:47:44;;;;;;;10.13;6.90;;;16.40;99.90;;;;;;4193830;28;20206;-77
2021/09/09 07:49:45;;;;;;;11.73;7.37;;;16.50;99.90;;;;;;4194191;28;20213;-77
2021/09/09 07:51:48;;;;;;;14.00;7.23;;;16.50;99.90;;;;;;4190457;28;20255;-75
2021/09/09 07:53:51;;;;;;;9.60;6.80;;;16.60;99.90;;;;;;4192382;28;20217;-76
2021/09/09 07:55:55;;;;;;;13.90;6.80;;;16.70;99.90;;;;;;4191166;28;20214;-77
2021/09/09 07:57:56;;;;;;;10.80;7.20;;;16.80;99.90;;;;;;4190434;28;20221;-76
2021/09/09 07:59:58;;;;;;;10.00;7.23;;;16.90;99.90;;;;;;4187431;28;20206;-75
2021/09/09 08:02:00;;;;;;;12.43;7.23;;;17.00;99.90;;;;;;4193082;28;20263;-76
2021/09/09 08:04:02;;;;;;;9.53;7.00;;;17.00;99.90;;;;;;4191515;28;20219;-77
2021/09/09 08:06:03;;;;;;;12.10;8.27;;;17.00;99.90;;;;;;4190055;28;20235;-79
2021/09/09 08:08:06;;;;;;;12.40;7.87;;;17.00;99.90;;;;;;4189674;28;20316;-79
2021/09/09 08:10:10;;;;;;;10.93;7.47;;;17.10;99.90;;;;;;4191987;28;20216;-76
2021/09/09 08:12:13;;;;;;;10.37;6.97;;;17.10;99.90;;;;;;4188609;28;20210;-77
2021/09/09 08:14:14;;;;;;;11.07;7.60;;;17.20;99.90;;;;;;4190579;28;20659;-77
2021/09/09 08:16:16;;;;;;;10.97;6.97;;;17.20;99.90;;;;;;4185665;28;20664;-75
2021/09/09 08:18:18;;;;;;;10.87;7.43;;;17.30;99.90;;;;;;4192361;28;20240;-76
2021/09/09 08:20:20;;;;;;;11.23;7.53;;;17.30;99.90;;;;;;4192778;28;20287;-77
2021/09/09 08:22:21;;;;;;;12.43;7.73;;;17.40;99.90;;;;;;4191066;28;20280;-76
2021/09/09 08:24:23;;;;;;;12.77;7.70;;;17.40;99.90;;;;;;4190603;28;20556;-76
2021/09/09 08:26:25;;;;;;;11.40;7.00;;;17.50;99.90;;;;;;4192479;28;20219;-77
2021/09/09 08:28:28;;;;;;;9.47;6.83;;;17.50;99.90;;;;;;4190721;28;20289;-76
2021/09/09 08:30:30;;;;;;;9.77;7.07;;;17.60;99.90;;;;;;4193459;28;20271;-78
2021/09/09 08:32:32;;;;;;;10.47;7.17;;;17.60;99.90;;;;;;4194257;28;20231;-78
2021/09/09 08:34:33;;;;;;;9.57;7.20;;;17.60;99.90;;;;;;4193789;28;20225;-78
2021/09/09 08:36:35;;;;;;;12.57;7.63;;;17.70;99.90;;;;;;4191294;28;20661;-78
2021/09/09 08:38:37;;;;;;;12.07;7.10;;;17.80;99.90;;;;;;4192536;28;20230;-78
2021/09/09 08:40:39;;;;;;;10.93;7.17;;;17.90;99.90;;;;;;4190633;28;20697;-79
2021/09/09 08:42:43;;;;;;;10.77;7.30;;;18.00;99.90;;;;;;4197983;28;20230;-78
2021/09/09 08:44:46;;;;;;;11.03;6.57;;;18.00;99.90;;;;;;4194493;28;20235;-78
2021/09/09 08:46:48;;;;;;;10.33;7.00;;;18.20;99.90;;;;;;4194892;28;20219;-78
2021/09/09 08:48:50;;;;;;;10.23;6.47;;;18.30;99.90;;;;;;4204032;28;20227;-77
2021/09/09 08:50:55;;;;;;;11.50;6.77;;;18.40;99.90;;;;;;4209137;28;20214;-77
2021/09/09 08:52:59;;;;;;;8.10;5.57;;;18.40;99.90;;;;;;4204164;28;20242;-77
2021/09/09 08:55:02;;;;;;;8.97;5.97;;;18.50;99.90;;;;;;4202032;28;20251;-77
2021/09/09 08:57:04;;;;;;;12.17;6.30;;;18.70;99.90;;;;;;4192599;28;20297;-77
2021/09/09 08:59:08;;;;;;;7.93;5.90;;;18.80;99.90;;;;;;4194014;28;20789;-77
2021/09/09 09:01:13;;;;;;;9.57;6.30;;;18.90;99.90;;;;;;4194072;28;20243;-76
2021/09/09 09:03:14;;;;;;;8.57;6.37;;;19.00;99.90;;;;;;4188449;28;20209;-77
2021/09/09 09:05:16;;;;;;;8.67;6.47;;;19.00;99.90;;;;;;4195724;28;20208;-75
2021/09/09 09:07:30;;;;;;;9.13;6.03;;;19.10;99.90;;;;;;4199124;28;20262;-77
2021/09/09 09:09:33;;;;;;;10.93;6.67;;;19.20;99.90;;;;;;4187613;28;20265;-77
2021/09/09 09:11:37;;;;;;;7.97;6.03;;;19.40;99.90;;;;;;4192322;28;20214;-76
2021/09/09 09:13:39;;;;;;;10.60;6.43;;;19.50;99.90;;;;;;4193202;28;20774;-77
2021/09/09 09:15:41;;;;;;;8.30;5.87;;;19.50;99.90;;;;;;4184801;28;20637;-77
2021/09/09 09:17:55;;;;;;;8.00;5.67;;;19.60;99.90;;;;;;4189606;28;20269;-77
2021/09/09 09:19:57;;;;;;;8.07;6.13;;;19.60;99.90;;;;;;4190581;28;20210;-79
2021/09/09 09:22:01;;;;;;;11.47;6.37;;;19.80;99.90;;;;;;4196541;28;20587;-78
2021/09/09 09:24:03;;;;;;;8.47;6.63;;;19.90;99.90;;;;;;4196599;28;20216;-76
2021/09/09 09:26:05;;;;;;;13.03;6.27;;;19.90;99.90;;;;;;4178463;28;20275;-76
2021/09/09 09:28:07;;;;;;;10.67;6.13;;;20.00;99.90;;;;;;4177352;28;20893;-77
2021/09/09 09:30:11;;;;;;;12.67;6.60;;;20.10;99.90;;;;;;4194677;28;20204;-77
2021/09/09 09:32:15;;;;;;;10.77;6.27;;;20.20;99.90;;;;;;4192741;28;20216;-77
2021/09/09 09:34:18;;;;;;;8.87;6.53;;;20.20;99.90;;;;;;4192820;28;20718;-82
2021/09/09 09:36:24;;;;;;;9.83;6.60;;;20.30;99.90;;;;;;4184030;28;20231;-76
2021/09/09 09:38:26;;;;;;;8.77;6.53;;;20.40;99.90;;;;;;4191476;28;20237;-76
2021/09/09 09:40:30;;;;;;;8.77;6.33;;;20.50;99.90;;;;;;4191688;28;20209;-76
2021/09/09 09:42:32;;;;;;;12.50;6.60;;;20.60;99.90;;;;;;4193023;28;20635;-76
2021/09/09 09:44:36;;;;;;;12.40;6.83;;;20.70;99.90;;;;;;4191726;28;20209;-76
2021/09/09 09:46:39;;;;;;;12.90;7.70;;;20.80;99.90;;;;;;4197819;28;20213;-75
2021/09/09 09:48:41;;;;;;;12.97;6.93;;;20.90;99.90;;;;;;4192939;28;20241;-76
2021/09/09 09:50:44;;;;;;;10.53;6.83;;;20.90;99.90;;;;;;4192114;28;20267;-76
2021/09/09 09:52:46;;;;;;;11.27;6.30;;;21.00;99.60;;;;;;4192927;28;20232;-76
2021/09/09 09:54:52;;;;;;;12.77;6.57;;;21.10;98.80;;;;;;4188748;28;20288;-76
2021/09/09 09:56:55;;;;;;;9.70;6.77;;;21.10;99.10;;;;;;4181772;28;20213;-76
2021/09/09 09:58:57;;;;;;;9.00;6.63;;;21.20;99.00;;;;;;4183869;28;20234;-76
2021/09/09 10:00:59;;;;;;;8.43;6.47;;;21.20;99.30;;;;;;4191551;28;20251;-76
2021/09/09 10:03:01;;;;;;;8.97;6.13;;;21.30;99.60;;;;;;4183450;28;20232;-76
2021/09/09 10:05:04;;;;;;;14.37;6.63;;;21.40;99.80;;;;;;4181630;28;20562;-76
2021/09/09 10:07:09;;;;;;;10.07;6.57;;;21.50;99.00;;;;;;4184348;28;20218;-75
2021/09/09 10:09:11;;;;;;;9.87;7.23;;;21.50;99.10;;;;;;4175869;28;20576;-76
2021/09/09 10:11:14;;;;;;;10.50;6.73;;;21.60;98.10;;;;;;4186623;28;20291;-76
2021/09/09 10:13:18;;;;;;;10.90;6.27;;;21.70;98.40;;;;;;4182790;28;20649;-74
2021/09/09 10:15:21;;;;;;;9.87;7.07;;;21.80;98.60;;;;;;4191399;28;20236;-76
2021/09/09 10:17:28;;;;;;;10.20;6.97;;;21.80;98.50;;;;;;4180937;28;20262;-76
2021/09/09 10:19:31;;;;;;;8.17;6.10;;;21.90;98.20;;;;;;4184255;28;20312;-77
2021/09/09 10:21:42;;;;;;;8.80;6.43;;;22.00;97.60;;;;;;4201071;28;20210;-77
2021/09/09 10:23:45;;;;;;;9.07;6.17;;;22.10;97.60;;;;;;4191307;28;20637;-77
2021/09/09 10:25:53;;;;;;;9.57;6.70;;;22.10;97.60;;;;;;4190794;28;20272;-77
2021/09/09 10:27:58;;;;;;;10.50;6.70;;;22.30;96.40;;;;;;4190557;28;20252;-77
2021/09/09 10:30:04;;;;;;;10.20;6.40;;;22.30;96.20;;;;;;4192671;28;20243;-77